Time;durP1;ratioP1;P1;durP2;ratioP2;P2;SDS_P1;SDS_P2;PMS_P1;PMS_P2;Temp;Humidity;BMP_temperature;BMP_pressure;BME280_temperature;BME280_humidity;BME280_pressure;Samples;Min_cycle;Max_cycle;Signal;HPM_P1;HPM_P2
2021/12/03 00:01:15;;;;;;;12.07;5.90;;;;;;;;;;5005604;28;20056;-78
2021/12/03 00:03:41;;;;;;;11.50;5.40;;;;;;;;;;5008663;28;20033;-78
2021/12/03 00:06:06;;;;;;;11.13;5.97;;;;;;;;;;5004100;28;20025;-78
2021/12/03 00:08:31;;;;;;;11.00;5.97;;;;;;;;;;5013700;28;20022;-78
2021/12/03 00:10:59;;;;;;;8.77;4.47;;;;;;;;;;5011693;28;20124;-78
2021/12/03 00:13:26;;;;;;;11.27;6.37;;;;;;;;;;5014249;28;20048;-79
2021/12/03 00:15:52;;;;;;;9.10;5.07;;;;;;;;;;5011762;28;20459;-79
2021/12/03 00:18:18;;;;;;;9.37;5.47;;;;;;;;;;4992435;28;20125;-77
2021/12/03 00:20:43;;;;;;;8.00;4.93;;;;;;;;;;5012726;28;20121;-77
2021/12/03 00:23:09;;;;;;;13.67;6.97;;;;;;;;;;5012427;28;20403;-77
2021/12/03 00:25:34;;;;;;;10.73;5.83;;;;;;;;;;5013278;28;20041;-79
2021/12/03 00:28:00;;;;;;;8.77;5.17;;;;;;;;;;5009706;28;20088;-79
2021/12/03 00:30:25;;;;;;;9.80;5.23;;;;;;;;;;5002427;28;20156;-79
2021/12/03 00:32:51;;;;;;;7.13;4.90;;;;;;;;;;5006414;28;20029;-79
2021/12/03 00:35:17;;;;;;;7.83;5.57;;;;;;;;;;5011575;28;20474;-79
2021/12/03 00:37:43;;;;;;;10.67;6.03;;;;;;;;;;4995496;28;20069;-79
2021/12/03 00:40:10;;;;;;;12.37;7.60;;;;;;;;;;4995422;28;20033;-79
2021/12/03 00:42:36;;;;;;;11.80;7.10;;;;;;;;;;5011691;28;20394;-79
2021/12/03 00:45:03;;;;;;;10.13;6.07;;;;;;;;;;5012663;28;20026;-79
2021/12/03 00:47:28;;;;;;;11.03;6.43;;;;;;;;;;5010086;28;20065;-78
2021/12/03 00:49:53;;;;;;;10.70;6.67;;;;;;;;;;5011294;28;20489;-79
2021/12/03 00:52:19;;;;;;;8.77;6.20;;;;;;;;;;5013001;28;20568;-79
2021/12/03 00:54:44;;;;;;;11.70;6.60;;;;;;;;;;5012388;28;20017;-79
2021/12/03 00:57:10;;;;;;;11.23;6.80;;;;;;;;;;5012601;28;20018;-80
2021/12/03 00:59:35;;;;;;;12.87;6.90;;;;;;;;;;5003709;28;20024;-79
2021/12/03 01:02:00;;;;;;;12.33;7.33;;;;;;;;;;5012695;28;20052;-79
2021/12/03 01:04:26;;;;;;;10.10;7.00;;;;;;;;;;5010635;28;20034;-79
2021/12/03 01:06:51;;;;;;;8.63;6.80;;;;;;;;;;4996082;28;20127;-79
2021/12/03 01:09:16;;;;;;;15.20;7.10;;;;;;;;;;5009779;28;20025;-79
2021/12/03 01:11:41;;;;;;;10.17;7.00;;;;;;;;;;4991570;28;20088;-78
2021/12/03 01:14:07;;;;;;;10.37;6.60;;;;;;;;;;5005178;28;20474;-79
2021/12/03 01:16:33;;;;;;;13.00;8.03;;;;;;;;;;5009994;28;20029;-79
2021/12/03 01:18:59;;;;;;;12.23;6.73;;;;;;;;;;5010710;28;20022;-79
2021/12/03 01:21:24;;;;;;;13.33;6.93;;;;;;;;;;5010946;28;20037;-78
2021/12/03 01:23:49;;;;;;;13.30;7.73;;;;;;;;;;4995381;28;20470;-79
2021/12/03 01:26:15;;;;;;;15.37;8.23;;;;;;;;;;5010674;28;20033;-79
2021/12/03 01:28:40;;;;;;;13.83;8.10;;;;;;;;;;5005727;28;20079;-79
2021/12/03 01:31:06;;;;;;;11.33;7.20;;;;;;;;;;5006825;28;20025;-79
2021/12/03 01:33:31;;;;;;;11.90;6.97;;;;;;;;;;4995311;28;20029;-79
2021/12/03 01:35:56;;;;;;;10.33;6.80;;;;;;;;;;5009983;28;20451;-79
2021/12/03 01:38:22;;;;;;;10.77;6.90;;;;;;;;;;5004889;28;20029;-79
2021/12/03 01:40:47;;;;;;;10.40;7.07;;;;;;;;;;4994944;28;20453;-79
2021/12/03 01:43:19;;;;;;;11.50;6.40;;;;;;;;;;5011769;28;20068;-79
2021/12/03 01:45:45;;;;;;;12.77;6.57;;;;;;;;;;5011084;28;20030;-79
2021/12/03 01:48:10;;;;;;;9.43;6.23;;;;;;;;;;5011435;28;20505;-79
2021/12/03 01:50:40;;;;;;;10.53;5.73;;;;;;;;;;5009142;28;20034;-79
2021/12/03 01:53:06;;;;;;;10.83;6.23;;;;;;;;;;5010650;28;20461;-78
2021/12/03 01:55:31;;;;;;;9.13;6.17;;;;;;;;;;5011468;28;20058;-78
2021/12/03 01:57:56;;;;;;;9.93;5.00;;;;;;;;;;5008212;28;20029;-79
2021/12/03 02:00:48;;;;;;;8.07;5.37;;;;;;;;;;5004637;28;20022;-78
2021/12/03 02:03:15;;;;;;;8.70;5.10;;;;;;;;;;5010230;28;20030;-78
2021/12/03 02:05:41;;;;;;;7.77;4.27;;;;;;;;;;5010363;28;20018;-80
2021/12/03 02:08:06;;;;;;;7.17;4.33;;;;;;;;;;5010524;28;20021;-79
2021/12/03 02:10:32;;;;;;;8.70;4.77;;;;;;;;;;5010492;28;20018;-79
2021/12/03 02:12:57;;;;;;;9.57;5.30;;;;;;;;;;5010039;28;20025;-79
2021/12/03 02:15:23;;;;;;;9.27;4.50;;;;;;;;;;4995142;28;20032;-79
2021/12/03 02:17:48;;;;;;;7.30;4.20;;;;;;;;;;5010388;28;20425;-77
2021/12/03 02:20:14;;;;;;;7.90;4.27;;;;;;;;;;5008111;28;20441;-78
2021/12/03 02:22:40;;;;;;;8.23;4.70;;;;;;;;;;5009842;28;20190;-79
2021/12/03 02:25:07;;;;;;;6.90;4.40;;;;;;;;;;5010987;28;20057;-79
2021/12/03 02:27:32;;;;;;;6.77;5.10;;;;;;;;;;5008948;28;20084;-79
2021/12/03 02:29:57;;;;;;;6.50;4.23;;;;;;;;;;5002487;28;20034;-79
2021/12/03 02:32:23;;;;;;;7.73;4.07;;;;;;;;;;5007750;28;20478;-79
2021/12/03 02:34:48;;;;;;;8.73;4.50;;;;;;;;;;5007584;28;20041;-79
2021/12/03 02:37:13;;;;;;;7.07;4.70;;;;;;;;;;5005030;28;20018;-79
2021/12/03 02:39:39;;;;;;;7.70;3.90;;;;;;;;;;4993986;28;20025;-79
2021/12/03 02:42:04;;;;;;;6.53;3.60;;;;;;;;;;5009378;28;20026;-79
2021/12/03 02:44:30;;;;;;;6.63;3.67;;;;;;;;;;5010057;28;20087;-79
2021/12/03 02:46:55;;;;;;;5.53;3.47;;;;;;;;;;5008360;28;20030;-79
2021/12/03 02:49:20;;;;;;;7.60;3.50;;;;;;;;;;4992796;28;20587;-78
2021/12/03 02:51:46;;;;;;;5.97;3.87;;;;;;;;;;4992846;28;20022;-78
2021/12/03 02:54:11;;;;;;;8.67;4.10;;;;;;;;;;5009610;28;20103;-78
2021/12/03 02:56:37;;;;;;;8.47;5.23;;;;;;;;;;4992323;28;20033;-78
2021/12/03 02:59:03;;;;;;;8.60;5.23;;;;;;;;;;5004967;28;20769;-78
2021/12/03 03:01:28;;;;;;;8.47;5.77;;;;;;;;;;5009944;28;20052;-78
2021/12/03 03:03:53;;;;;;;9.00;5.20;;;;;;;;;;5001044;28;20487;-79
2021/12/03 03:06:19;;;;;;;9.77;5.73;;;;;;;;;;4991823;28;20041;-79
2021/12/03 03:08:45;;;;;;;9.00;4.77;;;;;;;;;;4994081;28;20133;-79
2021/12/03 03:11:10;;;;;;;6.93;5.53;;;;;;;;;;4988682;28;20026;-78
2021/12/03 03:13:36;;;;;;;6.67;4.70;;;;;;;;;;5002458;28;20076;-78
2021/12/03 03:16:02;;;;;;;7.73;4.83;;;;;;;;;;5019100;28;20125;-79
2021/12/03 03:18:28;;;;;;;8.40;4.53;;;;;;;;;;5006530;28;20026;-79
2021/12/03 03:20:54;;;;;;;5.10;3.20;;;;;;;;;;5009974;28;20121;-79
2021/12/03 03:23:20;;;;;;;7.87;4.07;;;;;;;;;;4990757;28;20499;-79
2021/12/03 03:25:46;;;;;;;6.00;4.00;;;;;;;;;;5005908;28;20054;-79
2021/12/03 03:28:12;;;;;;;8.10;4.00;;;;;;;;;;5001003;28;20030;-79
2021/12/03 03:30:39;;;;;;;5.20;3.50;;;;;;;;;;5003742;28;20438;-79
2021/12/03 03:33:05;;;;;;;6.37;3.77;;;;;;;;;;5000535;28;20244;-81
2021/12/03 03:35:30;;;;;;;7.43;3.50;;;;;;;;;;5002887;28;20113;-79
2021/12/03 03:37:56;;;;;;;5.07;3.67;;;;;;;;;;4987447;28;20026;-79
2021/12/03 03:40:21;;;;;;;4.33;2.30;;;;;;;;;;5010072;28;20076;-79
2021/12/03 03:42:46;;;;;;;5.43;3.33;;;;;;;;;;5011014;28;20022;-78
2021/12/03 03:45:13;;;;;;;4.80;3.30;;;;;;;;;;5008137;28;20025;-79
2021/12/03 03:47:39;;;;;;;6.43;3.33;;;;;;;;;;5007394;28;20030;-80
2021/12/03 03:50:05;;;;;;;7.27;3.87;;;;;;;;;;5005167;28;20029;-80
2021/12/03 03:52:31;;;;;;;6.80;3.63;;;;;;;;;;5006517;28;20030;-80
2021/12/03 03:54:56;;;;;;;5.27;3.63;;;;;;;;;;5007144;28;20025;-79
2021/12/03 03:57:22;;;;;;;7.07;3.93;;;;;;;;;;5005651;28;20050;-79
2021/12/03 03:59:47;;;;;;;5.57;3.83;;;;;;;;;;4988972;28;20852;-79
2021/12/03 04:02:12;;;;;;;6.23;4.30;;;;;;;;;;5006319;28;20390;-77
2021/12/03 04:04:38;;;;;;;9.30;4.63;;;;;;;;;;5006307;28;20164;-77
2021/12/03 04:07:04;;;;;;;5.50;3.80;;;;;;;;;;5007455;28;20022;-79
2021/12/03 04:09:29;;;;;;;8.10;4.73;;;;;;;;;;5007332;28;20055;-79
2021/12/03 04:11:54;;;;;;;7.17;4.57;;;;;;;;;;5005419;28;20060;-79
2021/12/03 04:14:20;;;;;;;6.57;4.53;;;;;;;;;;4987523;28;20022;-78
2021/12/03 04:16:45;;;;;;;6.00;3.80;;;;;;;;;;5005851;28;20026;-77
2021/12/03 04:19:10;;;;;;;6.63;4.10;;;;;;;;;;5007245;28;20080;-77
2021/12/03 04:21:36;;;;;;;5.80;3.77;;;;;;;;;;4986575;28;20033;-77
2021/12/03 04:24:01;;;;;;;4.67;3.57;;;;;;;;;;5008429;28;20485;-77
2021/12/03 04:26:26;;;;;;;6.53;4.27;;;;;;;;;;5007154;28;20029;-77
2021/12/03 04:28:52;;;;;;;6.07;4.00;;;;;;;;;;5003379;28;20113;-77
2021/12/03 04:31:17;;;;;;;8.83;4.03;;;;;;;;;;5008813;28;20123;-77
2021/12/03 04:33:42;;;;;;;6.87;4.13;;;;;;;;;;5006967;28;20049;-77
2021/12/03 04:36:07;;;;;;;9.17;4.60;;;;;;;;;;5012953;28;20033;-77
2021/12/03 04:38:33;;;;;;;6.70;4.93;;;;;;;;;;5011849;28;20022;-77
2021/12/03 04:41:01;;;;;;;7.23;3.73;;;;;;;;;;5012469;28;20323;-78
2021/12/03 04:43:26;;;;;;;6.03;4.30;;;;;;;;;;5013679;28;20022;-77
2021/12/03 04:45:52;;;;;;;6.67;4.87;;;;;;;;;;5012864;28;20032;-77
2021/12/03 04:48:17;;;;;;;6.90;3.90;;;;;;;;;;4993583;28;20125;-77
2021/12/03 04:50:43;;;;;;;7.43;3.90;;;;;;;;;;5009863;28;20041;-78
2021/12/03 04:53:08;;;;;;;8.30;4.53;;;;;;;;;;4988751;28;20032;-78
2021/12/03 04:55:34;;;;;;;7.07;4.57;;;;;;;;;;5014465;28;20105;-77
2021/12/03 04:57:59;;;;;;;6.03;3.90;;;;;;;;;;5008270;28;20725;-78
2021/12/03 05:00:29;;;;;;;5.43;4.47;;;;;;;;;;4987851;28;20112;-78
2021/12/03 05:02:55;;;;;;;8.03;4.50;;;;;;;;;;5011361;28;20045;-78
2021/12/03 05:05:23;;;;;;;6.17;3.40;;;;;;;;;;5013389;28;20033;-77
2021/12/03 05:07:57;;;;;;;5.37;3.63;;;;;;;;;;5002380;28;20062;-77
2021/12/03 05:10:23;;;;;;;6.00;3.63;;;;;;;;;;5006460;28;20439;-77
2021/12/03 05:12:49;;;;;;;5.03;3.90;;;;;;;;;;4994939;28;20033;-78
2021/12/03 05:15:14;;;;;;;8.20;3.90;;;;;;;;;;4996283;28;20042;-78
2021/12/03 05:17:40;;;;;;;4.53;2.70;;;;;;;;;;4987255;28;20022;-78
2021/12/03 05:20:05;;;;;;;7.60;3.93;;;;;;;;;;5010536;28;20021;-78
2021/12/03 05:22:31;;;;;;;6.13;3.90;;;;;;;;;;4994790;28;20041;-78
2021/12/03 05:24:56;;;;;;;9.73;4.10;;;;;;;;;;5014321;28;20029;-79
2021/12/03 05:27:21;;;;;;;8.37;4.37;;;;;;;;;;5010781;28;20049;-79
2021/12/03 05:29:48;;;;;;;8.43;4.20;;;;;;;;;;5001109;28;20125;-79
2021/12/03 05:32:14;;;;;;;7.40;4.67;;;;;;;;;;5012161;28;20017;-78
2021/12/03 05:34:39;;;;;;;7.63;3.90;;;;;;;;;;5010537;28;20048;-78
2021/12/03 05:37:05;;;;;;;7.10;4.17;;;;;;;;;;4994846;28;20115;-78
2021/12/03 05:39:31;;;;;;;7.83;3.80;;;;;;;;;;5003396;28;20029;-78
2021/12/03 05:41:56;;;;;;;6.07;4.17;;;;;;;;;;5012252;28;20030;-78
2021/12/03 05:44:21;;;;;;;6.93;3.50;;;;;;;;;;5010553;28;20022;-78
2021/12/03 05:46:47;;;;;;;7.50;3.50;;;;;;;;;;5004748;28;20040;-78
2021/12/03 05:49:12;;;;;;;5.00;3.80;;;;;;;;;;4995567;28;20450;-78
2021/12/03 05:51:37;;;;;;;5.80;3.27;;;;;;;;;;5010288;28;20489;-76
2021/12/03 05:54:03;;;;;;;6.27;3.70;;;;;;;;;;5010260;28;20475;-78
2021/12/03 05:56:29;;;;;;;6.10;3.27;;;;;;;;;;5010636;28;20494;-78
2021/12/03 05:58:54;;;;;;;5.73;3.63;;;;;;;;;;4984870;28;20061;-78
2021/12/03 06:01:19;;;;;;;7.80;3.90;;;;;;;;;;4985122;28;20050;-77
2021/12/03 06:03:47;;;;;;;6.97;3.67;;;;;;;;;;4986325;28;20030;-78
2021/12/03 06:06:12;;;;;;;7.30;3.87;;;;;;;;;;5000299;28;20084;-79
2021/12/03 06:08:37;;;;;;;6.47;3.27;;;;;;;;;;5006973;28;20429;-77
2021/12/03 06:11:03;;;;;;;5.20;3.50;;;;;;;;;;5001165;28;20471;-78
2021/12/03 06:13:28;;;;;;;5.00;3.33;;;;;;;;;;4999635;28;20022;-79
2021/12/03 06:15:54;;;;;;;5.33;2.83;;;;;;;;;;5004089;28;20390;-79
2021/12/03 06:18:19;;;;;;;5.13;2.90;;;;;;;;;;4986404;28;20390;-80
2021/12/03 06:20:44;;;;;;;7.60;3.17;;;;;;;;;;5005313;28;20024;-80
2021/12/03 06:23:10;;;;;;;6.40;3.00;;;;;;;;;;5005069;28;20485;-80
2021/12/03 06:25:35;;;;;;;6.07;3.53;;;;;;;;;;5009846;28;20026;-80
2021/12/03 06:28:01;;;;;;;6.67;3.50;;;;;;;;;;4989640;28;20030;-80
2021/12/03 06:30:26;;;;;;;8.80;3.63;;;;;;;;;;5009833;28;20032;-80
2021/12/03 06:32:52;;;;;;;6.63;3.47;;;;;;;;;;5011832;28;20064;-80
2021/12/03 06:35:18;;;;;;;6.53;3.67;;;;;;;;;;4993457;28;20026;-80
2021/12/03 06:37:43;;;;;;;5.60;3.10;;;;;;;;;;5006575;28;20386;-79
2021/12/03 06:40:12;;;;;;;5.30;3.30;;;;;;;;;;5010732;28;20153;-79
2021/12/03 06:42:37;;;;;;;5.57;3.00;;;;;;;;;;5008510;28;20107;-79
2021/12/03 06:45:05;;;;;;;5.07;3.00;;;;;;;;;;5002893;28;20061;-79
2021/12/03 06:47:31;;;;;;;5.03;3.00;;;;;;;;;;4991458;28;20022;-79
2021/12/03 06:49:56;;;;;;;7.10;3.53;;;;;;;;;;4984164;28;20041;-79
2021/12/03 06:52:22;;;;;;;4.10;2.77;;;;;;;;;;5004204;28;20029;-79
2021/12/03 06:54:55;;;;;;;7.37;3.57;;;;;;;;;;4990988;28;20029;-79
2021/12/03 06:57:20;;;;;;;6.00;2.70;;;;;;;;;;4998234;28;20021;-79
2021/12/03 06:59:45;;;;;;;5.77;2.87;;;;;;;;;;4986772;28;20431;-79
2021/12/03 07:02:12;;;;;;;4.57;2.53;;;;;;;;;;4990270;28;20085;-79
2021/12/03 07:04:39;;;;;;;4.17;2.63;;;;;;;;;;5005780;28;20032;-79
2021/12/03 07:07:04;;;;;;;5.57;3.00;;;;;;;;;;5007918;28;20021;-79
2021/12/03 07:09:29;;;;;;;6.10;2.93;;;;;;;;;;4986584;28;20093;-79
2021/12/03 07:11:55;;;;;;;7.77;3.03;;;;;;;;;;4990829;28;20398;-79
2021/12/03 07:14:20;;;;;;;6.80;2.97;;;;;;;;;;5026303;28;20113;-79
2021/12/03 07:16:45;;;;;;;5.77;2.47;;;;;;;;;;4997075;28;20054;-79
2021/12/03 07:19:10;;;;;;;6.00;2.57;;;;;;;;;;5013787;28;20026;-80
2021/12/03 07:21:36;;;;;;;5.13;2.67;;;;;;;;;;4997132;28;20116;-80
2021/12/03 07:24:01;;;;;;;3.50;2.07;;;;;;;;;;5012216;28;20080;-81
2021/12/03 07:26:27;;;;;;;5.27;2.50;;;;;;;;;;5013726;28;20096;-81
2021/12/03 07:28:52;;;;;;;4.53;1.87;;;;;;;;;;4993592;28;20033;-79
2021/12/03 07:31:18;;;;;;;3.63;1.87;;;;;;;;;;4993825;28;20478;-79
2021/12/03 07:33:43;;;;;;;3.80;2.23;;;;;;;;;;5013659;28;20067;-79
2021/12/03 07:36:08;;;;;;;4.20;2.30;;;;;;;;;;4995444;28;20380;-80
2021/12/03 07:38:34;;;;;;;4.63;1.80;;;;;;;;;;4995174;28;20121;-79
2021/12/03 07:41:00;;;;;;;4.37;2.23;;;;;;;;;;4994134;28;20033;-79
2021/12/03 07:43:25;;;;;;;4.53;2.30;;;;;;;;;;4990598;28;20035;-79
2021/12/03 07:45:51;;;;;;;1.80;1.37;;;;;;;;;;5008159;28;20033;-80
2021/12/03 07:48:16;;;;;;;3.70;2.40;;;;;;;;;;5019475;28;20034;-79
2021/12/03 07:50:42;;;;;;;5.70;2.47;;;;;;;;;;5004870;28;20034;-80
2021/12/03 07:53:08;;;;;;;3.37;1.93;;;;;;;;;;4992131;28;20475;-79
2021/12/03 07:55:34;;;;;;;3.10;1.70;;;;;;;;;;4999926;28;20045;-79
2021/12/03 07:58:04;;;;;;;3.30;1.87;;;;;;;;;;5006219;28;20482;-79
2021/12/03 08:00:29;;;;;;;3.73;1.60;;;;;;;;;;5008576;28;20038;-79
2021/12/03 08:02:55;;;;;;;3.23;1.33;;;;;;;;;;5012278;28;20399;-80
2021/12/03 08:05:20;;;;;;;2.67;1.40;;;;;;;;;;4995279;28;20132;-79
2021/12/03 08:07:47;;;;;;;3.20;1.80;;;;;;;;;;5008521;28;20037;-79
2021/12/03 08:10:13;;;;;;;3.40;1.30;;;;;;;;;;5010272;28;20025;-79
2021/12/03 08:12:39;;;;;;;3.87;1.47;;;;;;;;;;5012170;28;20025;-79
2021/12/03 08:15:05;;;;;;;3.03;1.70;;;;;;;;;;5011763;28;20466;-79
2021/12/03 08:17:30;;;;;;;3.40;1.23;;;;;;;;;;4994267;28;20102;-79
2021/12/03 08:19:56;;;;;;;2.80;1.43;;;;;;;;;;4996530;28;20037;-79
2021/12/03 08:22:21;;;;;;;2.97;1.37;;;;;;;;;;4995684;28;20034;-79
2021/12/03 08:24:47;;;;;;;4.00;1.17;;;;;;;;;;5006970;28;21723;-80
2021/12/03 08:27:12;;;;;;;1.60;0.87;;;;;;;;;;4987856;28;20394;-81
2021/12/03 08:29:37;;;;;;;2.73;1.20;;;;;;;;;;5003401;28;20030;-80
2021/12/03 08:32:03;;;;;;;2.07;0.90;;;;;;;;;;5005998;28;20037;-81
2021/12/03 08:34:28;;;;;;;1.47;0.83;;;;;;;;;;4990080;28;20049;-80
2021/12/03 08:36:53;;;;;;;3.03;0.63;;;;;;;;;;4987813;28;20065;-80
2021/12/03 08:39:19;;;;;;;1.20;0.70;;;;;;;;;;4987377;28;20629;-80
2021/12/03 08:41:45;;;;;;;1.17;0.60;;;;;;;;;;4982727;28;20044;-80
2021/12/03 08:44:10;;;;;;;1.27;0.57;;;;;;;;;;5007283;28;20109;-80
2021/12/03 08:46:37;;;;;;;1.60;0.50;;;;;;;;;;5003680;28;20026;-79
2021/12/03 08:49:48;;;;;;;1.10;0.43;;;;;;;;;;4990532;28;20086;-79
2021/12/03 08:57:11;;;;;;;1.53;0.60;;;;;;;;;;5002512;28;20053;-79
2021/12/03 08:59:37;;;;;;;0.60;0.40;;;;;;;;;;4992431;28;20474;-80
2021/12/03 09:02:02;;;;;;;2.10;0.50;;;;;;;;;;5010075;28;20029;-80
2021/12/03 09:04:28;;;;;;;1.63;0.83;;;;;;;;;;4996716;28;20066;-80
2021/12/03 09:06:54;;;;;;;3.27;1.20;;;;;;;;;;5011187;28;20470;-80
2021/12/03 09:09:19;;;;;;;2.80;1.10;;;;;;;;;;5011641;28;20029;-80
2021/12/03 09:11:44;;;;;;;4.13;1.00;;;;;;;;;;5010220;28;20037;-80
2021/12/03 09:17:04;;;;;;;1.70;0.90;;;;;;;;;;5024690;28;20049;-79
2021/12/03 09:19:40;;;;;;;1.77;1.10;;;;;;;;;;5007857;28;20084;-78
2021/12/03 09:22:07;;;;;;;2.13;1.20;;;;;;;;;;4987779;28;20051;-78
2021/12/03 09:24:36;;;;;;;3.37;0.90;;;;;;;;;;5001682;28;20136;-79
2021/12/03 09:27:01;;;;;;;2.37;1.53;;;;;;;;;;4986022;28;20045;-79
2021/12/03 09:29:31;;;;;;;1.60;0.90;;;;;;;;;;5001425;28;20057;-79
2021/12/03 09:31:58;;;;;;;1.93;1.13;;;;;;;;;;4987702;28;20022;-78
2021/12/03 09:34:24;;;;;;;2.20;1.20;;;;;;;;;;4987916;28;20447;-78
2021/12/03 09:36:49;;;;;;;3.07;1.13;;;;;;;;;;5003897;28;20025;-80
2021/12/03 09:39:20;;;;;;;2.57;1.50;;;;;;;;;;5004415;28;20675;-78
2021/12/03 09:41:46;;;;;;;3.00;1.57;;;;;;;;;;5001867;28;20028;-78
2021/12/03 09:44:11;;;;;;;2.60;1.30;;;;;;;;;;5007263;28;20104;-78
2021/12/03 09:46:36;;;;;;;3.57;1.70;;;;;;;;;;5011048;28;20022;-69
2021/12/03 09:51:30;;;;;;;2.63;1.60;;;;;;;;;;5011703;28;20045;-73
2021/12/03 09:54:20;;;;;;;2.03;1.20;;;;;;;;;;5009696;28;20386;-73
2021/12/03 09:56:45;;;;;;;2.60;1.83;;;;;;;;;;5011665;28;20018;-73
2021/12/03 10:01:42;;;;;;;1.77;1.40;;;;;;;;;;5007386;28;20045;-73
2021/12/03 10:17:47;;;;;;;2.75;1.80;;;;;;;;;;5011425;28;20029;-75
2021/12/03 10:20:21;;;;;;;2.35;1.05;;;;;;;;;;5010938;28;20042;-73
2021/12/03 10:30:58;;;;;;;2.58;1.33;;;;;;;;;;5011608;28;20502;-77
2021/12/03 10:41:50;;;;;;;2.25;1.17;;;;;;;;;;5004240;28;20466;-70
2021/12/03 10:48:50;;;;;;;1.25;1.00;;;;;;;;;;5000218;28;20201;-74
2021/12/03 10:51:30;;;;;;;2.97;1.33;;;;;;;;;;5009474;28;20474;-75
2021/12/03 10:57:37;;;;;;;1.58;0.82;;;;;;;;;;5000903;28;20040;-75
2021/12/03 11:25:26;;;;;;;1.75;1.25;;;;;;;;;;4893983;29;20501;-74
2021/12/03 13:13:16;;;;;;;2.60;1.10;;;;;;;;;;5007282;28;20040;-71
2021/12/03 14:40:51;;;;;;;3.90;2.13;;;;;;;;;;5007857;28;20385;-74
2021/12/03 14:48:36;;;;;;;3.07;1.97;;;;;;;;;;5007649;28;20024;-75
2021/12/03 14:51:12;;;;;;;1.67;1.53;;;;;;;;;;5021343;28;20105;-75
2021/12/03 14:56:19;;;;;;;4.27;1.90;;;;;;;;;;5007437;28;20053;-75
2021/12/03 15:01:21;;;;;;;3.77;2.00;;;;;;;;;;5004906;28;20042;-76
2021/12/03 15:06:51;;;;;;;1.80;1.20;;;;;;;;;;5007071;28;20120;-75
2021/12/03 15:09:26;;;;;;;3.20;1.30;;;;;;;;;;5006147;28;20053;-77
2021/12/03 15:20:43;;;;;;;2.40;1.57;;;;;;;;;;4974336;28;20577;-75
2021/12/03 15:26:04;;;;;;;1.70;1.40;;;;;;;;;;4976967;28;20042;-75
2021/12/03 16:03:58;;;;;;;2.70;1.70;;;;;;;;;;4931955;29;20039;-75
2021/12/03 16:08:59;;;;;;;4.93;1.90;;;;;;;;;;5012927;28;20030;-75
2021/12/03 16:11:39;;;;;;;4.27;1.90;;;;;;;;;;5013754;28;20025;-75
2021/12/03 16:19:38;;;;;;;5.00;1.70;;;;;;;;;;5013268;28;20041;-75
2021/12/03 16:22:23;;;;;;;3.30;1.63;;;;;;;;;;4994982;28;20041;-76
2021/12/03 16:43:34;;;;;;;3.13;1.57;;;;;;;;;;5006279;28;20454;-76
2021/12/03 16:43:49;;;;;;;3.13;1.13;;;;;;;;;;5013908;28;20505;-75
2021/12/03 16:53:52;;;;;;;2.77;1.40;;;;;;;;;;5014207;28;20018;-76
2021/12/03 16:56:28;;;;;;;1.80;1.27;;;;;;;;;;4995488;28;20166;-76
2021/12/03 16:58:55;;;;;;;1.60;1.17;;;;;;;;;;5007269;28;20038;-75
2021/12/03 17:01:27;;;;;;;4.07;1.13;;;;;;;;;;4994995;28;20402;-75
2021/12/03 17:12:12;;;;;;;4.17;1.20;;;;;;;;;;5010209;28;20037;-75
2021/12/03 17:49:20;;;;;;;5.47;1.07;;;;;;;;;;4957984;28;20031;-75
2021/12/03 17:59:47;;;;;;;1.20;0.60;;;;;;;;;;5005078;28;20037;-76
2021/12/03 18:56:08;;;;;;;3.27;0.73;;;;;;;;;;5007823;28;20037;-74
2021/12/03 18:58:34;;;;;;;2.47;0.70;;;;;;;;;;4997722;28;20045;-75
2021/12/03 19:01:00;;;;;;;2.20;0.90;;;;;;;;;;5005386;28;20076;-75
2021/12/03 19:06:04;;;;;;;1.27;0.67;;;;;;;;;;5003669;28;20034;-76
2021/12/03 19:11:33;;;;;;;1.43;0.43;;;;;;;;;;4990698;28;20040;-75
2021/12/03 19:13:58;;;;;;;1.93;0.90;;;;;;;;;;5002232;28;20054;-75
2021/12/03 19:16:25;;;;;;;3.03;0.90;;;;;;;;;;5002793;28;20127;-76
2021/12/03 19:18:52;;;;;;;2.77;0.70;;;;;;;;;;5003780;28;20041;-76
2021/12/03 19:21:22;;;;;;;1.17;0.57;;;;;;;;;;5001289;28;20022;-76
2021/12/03 19:23:49;;;;;;;2.77;0.90;;;;;;;;;;5003802;28;20390;-76
2021/12/03 19:26:14;;;;;;;2.20;0.70;;;;;;;;;;5004850;28;20606;-75
2021/12/03 19:28:40;;;;;;;1.67;0.50;;;;;;;;;;4978906;28;20022;-76
2021/12/03 19:31:06;;;;;;;2.00;0.70;;;;;;;;;;5003386;28;20022;-73
2021/12/03 19:33:33;;;;;;;2.77;0.80;;;;;;;;;;5006157;28;20029;-74
2021/12/03 19:35:58;;;;;;;4.97;1.03;;;;;;;;;;5008410;28;20475;-74
2021/12/03 19:38:24;;;;;;;2.90;1.10;;;;;;;;;;5008755;28;20041;-74
2021/12/03 19:41:12;;;;;;;1.97;1.00;;;;;;;;;;4991919;28;20033;-75
2021/12/03 19:43:46;;;;;;;2.73;1.00;;;;;;;;;;5005772;28;20073;-74
2021/12/03 19:46:18;;;;;;;3.63;0.43;;;;;;;;;;4991468;28;20057;-75
2021/12/03 19:48:50;;;;;;;1.77;0.63;;;;;;;;;;5001850;28;20030;-75
2021/12/03 19:51:17;;;;;;;3.57;1.00;;;;;;;;;;5002716;28;20022;-75
2021/12/03 19:54:05;;;;;;;2.97;0.80;;;;;;;;;;5004146;28;20108;-75
2021/12/03 19:56:28;;;;;;;;;;;;;;;;;;5009954;28;20394;-75
2021/12/03 19:58:54;;;;;;;2.60;1.05;;;;;;;;;;4997642;28;19917;-75
2021/12/03 20:01:19;;;;;;;2.43;0.83;;;;;;;;;;5001549;28;20351;-75
2021/12/03 20:03:45;;;;;;;4.17;0.90;;;;;;;;;;5004885;28;20401;-75
2021/12/03 20:06:10;;;;;;;3.63;0.93;;;;;;;;;;5005921;28;20021;-75
2021/12/03 20:08:35;;;;;;;4.53;0.77;;;;;;;;;;5005761;28;20033;-70
2021/12/03 20:11:06;;;;;;;2.90;0.83;;;;;;;;;;5005594;28;20026;-74
2021/12/03 20:13:31;;;;;;;1.00;0.60;;;;;;;;;;5005623;28;20057;-73
2021/12/03 20:20:57;;;;;;;0.90;0.50;;;;;;;;;;5005727;28;20553;-74
2021/12/03 20:31:25;;;;;;;2.20;0.60;;;;;;;;;;5007824;28;21996;-75
2021/12/03 20:34:01;;;;;;;2.20;1.03;;;;;;;;;;5008475;28;20032;-74
2021/12/03 20:36:34;;;;;;;1.67;0.50;;;;;;;;;;5008305;28;20022;-73
2021/12/03 20:39:03;;;;;;;4.27;1.27;;;;;;;;;;5009763;28;20035;-74
2021/12/03 20:47:56;;;;;;;3.27;0.83;;;;;;;;;;4963803;28;20056;-72
2021/12/03 20:50:32;;;;;;;2.22;0.90;;;;;;;;;;5007213;28;20050;-75
2021/12/03 21:09:51;;;;;;;2.83;1.10;;;;;;;;;;4949412;29;20111;-75
2021/12/03 21:12:30;;;;;;;3.63;0.90;;;;;;;;;;4931741;29;20492;-75
2021/12/03 21:15:03;;;;;;;1.73;0.90;;;;;;;;;;4947932;28;20110;-75
2021/12/03 21:22:43;;;;;;;2.33;0.80;;;;;;;;;;4946096;28;20035;-74
2021/12/03 21:25:11;;;;;;;1.20;0.50;;;;;;;;;;4949879;28;20035;-75
2021/12/03 21:27:41;;;;;;;3.17;0.80;;;;;;;;;;4951919;29;20050;-75
2021/12/03 21:43:18;;;;;;;1.53;0.63;;;;;;;;;;5010586;28;20030;-75
2021/12/03 21:45:43;;;;;;;2.63;0.60;;;;;;;;;;5005132;28;20380;-75
2021/12/03 21:48:09;;;;;;;2.13;0.63;;;;;;;;;;4989145;28;20034;-75
2021/12/03 21:50:34;;;;;;;2.00;0.50;;;;;;;;;;5005987;28;20025;-74
2021/12/03 21:53:00;;;;;;;3.10;0.90;;;;;;;;;;5005058;28;20043;-74
2021/12/03 21:55:26;;;;;;;2.00;1.13;;;;;;;;;;5006244;28;20091;-74
2021/12/03 21:57:53;;;;;;;2.73;0.60;;;;;;;;;;5000679;28;20022;-74
2021/12/03 22:00:18;;;;;;;1.30;0.80;;;;;;;;;;5001899;28;20105;-74
2021/12/03 22:02:44;;;;;;;2.37;0.83;;;;;;;;;;5005139;28;20130;-75
2021/12/03 22:05:10;;;;;;;3.00;1.00;;;;;;;;;;4990509;28;20490;-75
2021/12/03 22:07:35;;;;;;;2.87;0.80;;;;;;;;;;5007061;28;20029;-75
2021/12/03 22:10:00;;;;;;;3.40;1.03;;;;;;;;;;5009260;28;20030;-75
2021/12/03 22:12:26;;;;;;;1.77;0.70;;;;;;;;;;5010979;28;20033;-75
2021/12/03 22:14:51;;;;;;;2.03;0.70;;;;;;;;;;4993303;28;20475;-74
2021/12/03 22:17:16;;;;;;;2.67;1.43;;;;;;;;;;5008953;28;20394;-74
2021/12/03 22:19:42;;;;;;;3.87;0.73;;;;;;;;;;5010065;28;20026;-75
2021/12/03 22:22:07;;;;;;;2.33;0.90;;;;;;;;;;5009685;28;20064;-74
2021/12/03 22:24:36;;;;;;;1.67;1.00;;;;;;;;;;5011144;28;20057;-75
2021/12/03 22:27:02;;;;;;;2.70;0.87;;;;;;;;;;5007677;28;20034;-75
2021/12/03 22:29:27;;;;;;;2.87;1.00;;;;;;;;;;5005323;28;20026;-75
2021/12/03 22:31:53;;;;;;;2.00;0.77;;;;;;;;;;5022552;28;20037;-75
2021/12/03 22:34:18;;;;;;;1.90;0.83;;;;;;;;;;5014623;28;20022;-74
2021/12/03 22:36:43;;;;;;;2.33;0.87;;;;;;;;;;4992128;28;20030;-74
2021/12/03 22:39:09;;;;;;;2.70;0.80;;;;;;;;;;5017506;28;20483;-74
2021/12/03 22:41:37;;;;;;;3.23;0.60;;;;;;;;;;5010914;28;20030;-74
2021/12/03 22:44:03;;;;;;;2.87;0.70;;;;;;;;;;4994359;28;20041;-75
2021/12/03 22:46:36;;;;;;;2.40;0.73;;;;;;;;;;5008342;28;20030;-74
2021/12/03 22:54:07;;;;;;;2.83;0.43;;;;;;;;;;5009539;28;20032;-74
2021/12/03 22:56:32;;;;;;;2.70;0.43;;;;;;;;;;5006011;28;20173;-75
2021/12/03 22:58:57;;;;;;;2.40;0.40;;;;;;;;;;5000722;28;20026;-73
2021/12/03 23:01:22;;;;;;;1.53;0.50;;;;;;;;;;5004812;28;20022;-74
2021/12/03 23:03:48;;;;;;;1.67;0.50;;;;;;;;;;5006640;28;20132;-74
2021/12/03 23:06:13;;;;;;;1.10;0.60;;;;;;;;;;5005477;28;20057;-73
2021/12/03 23:08:38;;;;;;;1.10;0.40;;;;;;;;;;5005883;28;20026;-75
2021/12/03 23:11:04;;;;;;;2.50;0.50;;;;;;;;;;5005146;28;20017;-74
2021/12/03 23:13:30;;;;;;;2.30;0.50;;;;;;;;;;5007864;28;20029;-75
2021/12/03 23:15:55;;;;;;;0.67;0.33;;;;;;;;;;4992251;28;20399;-75
2021/12/03 23:18:21;;;;;;;3.13;0.60;;;;;;;;;;5008888;28;20022;-75
2021/12/03 23:20:51;;;;;;;2.97;0.87;;;;;;;;;;5008202;28;20028;-75
2021/12/03 23:23:17;;;;;;;0.57;0.33;;;;;;;;;;5007424;28;20042;-75
2021/12/03 23:25:44;;;;;;;1.23;0.50;;;;;;;;;;5007300;28;20026;-75
2021/12/03 23:28:11;;;;;;;1.90;0.60;;;;;;;;;;5002357;28;20033;-74
2021/12/03 23:30:37;;;;;;;1.90;0.60;;;;;;;;;;4991099;28;20151;-74